sensor_id;sensor_type;location;lat;lon;timestamp;pressure;altitude;pressure_sealevel;temperature;humidity
7180;BME280;3631;42.152;24.756;2022-08-14T00:00:11;98657.22;;;23.92;89.83
7180;BME280;3631;42.152;24.756;2022-08-14T00:02:38;98653.34;;;23.86;89.99
7180;BME280;3631;42.152;24.756;2022-08-14T00:05:07;98657.72;;;23.77;90.98
7180;BME280;3631;42.152;24.756;2022-08-14T00:07:34;98653.00;;;23.71;91.06
7180;BME280;3631;42.152;24.756;2022-08-14T00:10:01;98643.00;;;23.65;91.47
7180;BME280;3631;42.152;24.756;2022-08-14T00:12:29;98648.84;;;23.69;91.42
7180;BME280;3631;42.152;24.756;2022-08-14T00:14:58;98645.38;;;23.68;91.32
7180;BME280;3631;42.152;24.756;2022-08-14T00:17:25;98637.84;;;23.64;91.33
7180;BME280;3631;42.152;24.756;2022-08-14T00:19:52;98632.56;;;23.64;91.33
7180;BME280;3631;42.152;24.756;2022-08-14T00:22:19;98643.16;;;23.64;91.46
7180;BME280;3631;42.152;24.756;2022-08-14T00:24:46;98637.09;;;23.71;91.15
7180;BME280;3631;42.152;24.756;2022-08-14T00:27:13;98640.16;;;23.76;90.18
7180;BME280;3631;42.152;24.756;2022-08-14T00:29:40;98636.44;;;23.69;90.59
7180;BME280;3631;42.152;24.756;2022-08-14T00:32:09;98632.25;;;23.67;90.72
7180;BME280;3631;42.152;24.756;2022-08-14T00:34:37;98633.47;;;23.72;90.32
7180;BME280;3631;42.152;24.756;2022-08-14T00:37:04;98643.94;;;23.74;90.06
7180;BME280;3631;42.152;24.756;2022-08-14T00:39:31;98631.44;;;23.66;90.16
7180;BME280;3631;42.152;24.756;2022-08-14T00:41:58;98617.50;;;23.64;90.13
7180;BME280;3631;42.152;24.756;2022-08-14T00:44:25;98632.25;;;23.67;89.94
7180;BME280;3631;42.152;24.756;2022-08-14T00:46:54;98627.47;;;23.70;89.90
7180;BME280;3631;42.152;24.756;2022-08-14T00:49:22;98627.47;;;23.70;90.04
7180;BME280;3631;42.152;24.756;2022-08-14T00:51:49;98617.50;;;23.64;90.23
7180;BME280;3631;42.152;24.756;2022-08-14T00:54:16;98620.13;;;23.64;90.42
7180;BME280;3631;42.152;24.756;2022-08-14T00:56:44;98617.19;;;23.67;90.17
7180;BME280;3631;42.152;24.756;2022-08-14T00:59:11;98620.13;;;23.64;90.43
7180;BME280;3631;42.152;24.756;2022-08-14T01:01:38;98612.63;;;23.60;90.26
7180;BME280;3631;42.152;24.756;2022-08-14T01:04:05;98620.75;;;23.58;89.80
7180;BME280;3631;42.152;24.756;2022-08-14T01:06:34;98619.06;;;23.57;90.11
7180;BME280;3631;42.152;24.756;2022-08-14T01:09:02;98618.53;;;23.53;90.35
7180;BME280;3631;42.152;24.756;2022-08-14T01:11:30;98622.00;;;23.54;90.41
7180;BME280;3631;42.152;24.756;2022-08-14T01:13:58;98620.06;;;23.56;90.21
7180;BME280;3631;42.152;24.756;2022-08-14T01:16:26;98618.09;;;23.58;89.79
7180;BME280;3631;42.152;24.756;2022-08-14T01:18:55;98614.75;;;23.56;89.72
7180;BME280;3631;42.152;24.756;2022-08-14T01:21:41;98614.78;;;23.46;90.51
7180;BME280;3631;42.152;24.756;2022-08-14T01:24:09;98603.22;;;23.47;90.85
7180;BME280;3631;42.152;24.756;2022-08-14T01:26:40;98605.59;;;23.41;91.31
7180;BME280;3631;42.152;24.756;2022-08-14T01:29:08;98617.03;;;23.41;91.27
7180;BME280;3631;42.152;24.756;2022-08-14T01:31:37;98612.56;;;23.42;91.22
7180;BME280;3631;42.152;24.756;2022-08-14T01:34:06;98605.31;;;23.44;91.01
7180;BME280;3631;42.152;24.756;2022-08-14T01:36:34;98605.16;;;23.45;90.71
7180;BME280;3631;42.152;24.756;2022-08-14T01:39:07;98611.28;;;23.46;90.79
7180;BME280;3631;42.152;24.756;2022-08-14T01:41:35;98611.81;;;23.49;90.76
7180;BME280;3631;42.152;24.756;2022-08-14T01:44:05;98621.31;;;23.52;90.55
7180;BME280;3631;42.152;24.756;2022-08-14T01:46:34;98615.34;;;23.50;90.55
7180;BME280;3631;42.152;24.756;2022-08-14T01:49:05;98614.38;;;23.41;91.05
7180;BME280;3631;42.152;24.756;2022-08-14T01:51:33;98618.41;;;23.45;90.96
7180;BME280;3631;42.152;24.756;2022-08-14T01:54:03;98614.53;;;23.40;91.39
7180;BME280;3631;42.152;24.756;2022-08-14T01:56:33;98622.47;;;23.40;91.46
7180;BME280;3631;42.152;24.756;2022-08-14T01:59:03;98610.25;;;23.29;91.82
7180;BME280;3631;42.152;24.756;2022-08-14T02:01:30;98609.41;;;23.29;92.54
7180;BME280;3631;42.152;24.756;2022-08-14T02:03:58;98611.63;;;23.33;92.77
7180;BME280;3631;42.152;24.756;2022-08-14T02:06:25;98610.53;;;23.26;93.21
7180;BME280;3631;42.152;24.756;2022-08-14T02:08:52;98607.06;;;23.26;93.79
7180;BME280;3631;42.152;24.756;2022-08-14T02:11:19;98603.56;;;23.25;93.58
7180;BME280;3631;42.152;24.756;2022-08-14T02:13:54;98591.63;;;23.21;93.60
7180;BME280;3631;42.152;24.756;2022-08-14T02:16:25;98593.44;;;23.21;93.44
7180;BME280;3631;42.152;24.756;2022-08-14T02:18:55;98595.19;;;23.30;93.59
7180;BME280;3631;42.152;24.756;2022-08-14T02:21:23;98589.75;;;23.31;93.77
7180;BME280;3631;42.152;24.756;2022-08-14T02:23:51;98584.38;;;23.23;94.75
7180;BME280;3631;42.152;24.756;2022-08-14T02:26:20;98590.66;;;23.22;95.09
7180;BME280;3631;42.152;24.756;2022-08-14T02:28:49;98593.16;;;23.24;95.00
7180;BME280;3631;42.152;24.756;2022-08-14T02:31:18;98587.16;;;23.22;93.97
7180;BME280;3631;42.152;24.756;2022-08-14T02:33:45;98585.78;;;23.17;93.35
7180;BME280;3631;42.152;24.756;2022-08-14T02:36:13;98588.03;;;23.12;93.78
7180;BME280;3631;42.152;24.756;2022-08-14T02:38:41;98589.41;;;23.16;93.62
7180;BME280;3631;42.152;24.756;2022-08-14T02:41:10;98579.66;;;23.17;93.33
7180;BME280;3631;42.152;24.756;2022-08-14T02:43:37;98584.09;;;23.16;93.76
7180;BME280;3631;42.152;24.756;2022-08-14T02:46:06;98584.84;;;23.09;94.02
7180;BME280;3631;42.152;24.756;2022-08-14T02:48:38;98584.28;;;23.05;93.98
7180;BME280;3631;42.152;24.756;2022-08-14T02:51:08;98565.25;;;22.92;94.40
7180;BME280;3631;42.152;24.756;2022-08-14T02:53:37;98582.09;;;23.01;94.41
7180;BME280;3631;42.152;24.756;2022-08-14T02:56:07;98576.53;;;22.94;94.98
7180;BME280;3631;42.152;24.756;2022-08-14T02:58:37;98574.88;;;22.93;95.06
7180;BME280;3631;42.152;24.756;2022-08-14T03:01:06;98575.88;;;22.83;95.97
7180;BME280;3631;42.152;24.756;2022-08-14T03:03:34;98576.31;;;22.78;96.79
7180;BME280;3631;42.152;24.756;2022-08-14T03:06:04;98573.78;;;22.86;96.68
7180;BME280;3631;42.152;24.756;2022-08-14T03:08:31;98573.19;;;22.92;96.00
7180;BME280;3631;42.152;24.756;2022-08-14T03:10:59;98580.16;;;22.93;96.07
7180;BME280;3631;42.152;24.756;2022-08-14T03:13:31;98564.88;;;22.87;96.16
7180;BME280;3631;42.152;24.756;2022-08-14T03:16:00;98572.66;;;22.89;96.76
7180;BME280;3631;42.152;24.756;2022-08-14T03:18:28;98561.81;;;22.82;96.85
7180;BME280;3631;42.152;24.756;2022-08-14T03:20:55;98545.09;;;22.72;96.79
7180;BME280;3631;42.152;24.756;2022-08-14T03:23:23;98563.75;;;22.80;97.03
7180;BME280;3631;42.152;24.756;2022-08-14T03:25:50;98562.09;;;22.89;96.46
7180;BME280;3631;42.152;24.756;2022-08-14T03:28:17;98563.44;;;22.93;96.29
7180;BME280;3631;42.152;24.756;2022-08-14T03:30:44;98557.91;;;22.86;96.61
7180;BME280;3631;42.152;24.756;2022-08-14T03:33:11;98561.56;;;22.75;97.70
7180;BME280;3631;42.152;24.756;2022-08-14T03:35:38;98562.66;;;22.83;97.19
7180;BME280;3631;42.152;24.756;2022-08-14T03:38:07;98572.00;;;22.77;97.46
7180;BME280;3631;42.152;24.756;2022-08-14T03:40:36;98566.00;;;22.75;98.08
7180;BME280;3631;42.152;24.756;2022-08-14T03:43:04;98569.88;;;22.80;98.34
7180;BME280;3631;42.152;24.756;2022-08-14T03:45:32;98571.88;;;22.78;98.70
7180;BME280;3631;42.152;24.756;2022-08-14T03:48:01;98566.88;;;22.66;99.53
7180;BME280;3631;42.152;24.756;2022-08-14T03:50:29;98575.03;;;22.72;99.77
7180;BME280;3631;42.152;24.756;2022-08-14T03:52:57;98581.63;;;22.68;100.00
7180;BME280;3631;42.152;24.756;2022-08-14T03:55:25;98583.81;;;22.73;100.00
7180;BME280;3631;42.152;24.756;2022-08-14T03:57:54;98583.81;;;22.73;100.00
7180;BME280;3631;42.152;24.756;2022-08-14T04:00:22;98588.28;;;22.72;100.00
7180;BME280;3631;42.152;24.756;2022-08-14T04:02:49;98584.94;;;22.70;100.00
7180;BME280;3631;42.152;24.756;2022-08-14T04:05:16;98591.38;;;22.77;100.00
7180;BME280;3631;42.152;24.756;2022-08-14T04:07:43;98587.56;;;22.90;100.00
7180;BME280;3631;42.152;24.756;2022-08-14T04:10:11;98591.28;;;22.97;100.00
7180;BME280;3631;42.152;24.756;2022-08-14T04:12:38;98599.47;;;23.03;100.00
7180;BME280;3631;42.152;24.756;2022-08-14T04:15:08;98599.47;;;23.03;100.00
7180;BME280;3631;42.152;24.756;2022-08-14T04:17:35;98596.81;;;23.13;100.00
7180;BME280;3631;42.152;24.756;2022-08-14T04:20:04;98597.06;;;23.20;100.00
7180;BME280;3631;42.152;24.756;2022-08-14T04:22:32;98608.91;;;23.15;100.00
7180;BME280;3631;42.152;24.756;2022-08-14T04:24:59;98604.31;;;23.17;100.00
7180;BME280;3631;42.152;24.756;2022-08-14T04:27:26;98606.06;;;23.27;100.00
7180;BME280;3631;42.152;24.756;2022-08-14T04:29:54;98603.75;;;23.24;100.00
7180;BME280;3631;42.152;24.756;2022-08-14T04:32:23;98606.44;;;23.04;100.00
7180;BME280;3631;42.152;24.756;2022-08-14T04:34:52;98605.59;;;23.04;100.00
7180;BME280;3631;42.152;24.756;2022-08-14T04:37:21;98603.94;;;23.12;100.00
7180;BME280;3631;42.152;24.756;2022-08-14T04:40:06;98600.31;;;23.13;100.00
7180;BME280;3631;42.152;24.756;2022-08-14T04:42:50;98606.41;;;23.14;100.00
7180;BME280;3631;42.152;24.756;2022-08-14T04:45:35;98608.75;;;23.17;100.00
7180;BME280;3631;42.152;24.756;2022-08-14T04:48:07;98595.09;;;23.22;100.00
7180;BME280;3631;42.152;24.756;2022-08-14T04:50:42;98588.72;;;23.14;100.00
7180;BME280;3631;42.152;24.756;2022-08-14T04:53:11;98606.25;;;23.15;100.00
7180;BME280;3631;42.152;24.756;2022-08-14T04:55:39;98599.59;;;23.11;100.00
7180;BME280;3631;42.152;24.756;2022-08-14T04:58:07;98601.09;;;23.24;100.00
7180;BME280;3631;42.152;24.756;2022-08-14T05:00:35;98592.56;;;23.30;100.00
7180;BME280;3631;42.152;24.756;2022-08-14T05:03:05;98601.38;;;23.58;100.00
7180;BME280;3631;42.152;24.756;2022-08-14T05:05:33;98600.22;;;24.67;94.02
7180;BME280;3631;42.152;24.756;2022-08-14T05:08:07;98594.88;;;26.02;85.36
7180;BME280;3631;42.152;24.756;2022-08-14T05:10:38;98609.50;;;27.04;78.98
7180;BME280;3631;42.152;24.756;2022-08-14T05:13:05;98600.75;;;27.73;74.03
7180;BME280;3631;42.152;24.756;2022-08-14T05:15:33;98604.09;;;27.67;73.35
7180;BME280;3631;42.152;24.756;2022-08-14T05:18:03;98592.94;;;27.25;74.64
7180;BME280;3631;42.152;24.756;2022-08-14T05:20:38;98598.50;;;28.39;70.77
7180;BME280;3631;42.152;24.756;2022-08-14T05:23:06;98590.75;;;30.06;62.94
7180;BME280;3631;42.152;24.756;2022-08-14T05:25:33;98604.69;;;31.21;57.83
7180;BME280;3631;42.152;24.756;2022-08-14T05:28:08;98604.41;;;31.98;55.37
7180;BME280;3631;42.152;24.756;2022-08-14T05:30:36;98598.06;;;32.19;53.88
7180;BME280;3631;42.152;24.756;2022-08-14T05:33:03;98602.63;;;32.97;51.86
7180;BME280;3631;42.152;24.756;2022-08-14T05:35:30;98606.13;;;33.75;48.52
7180;BME280;3631;42.152;24.756;2022-08-14T05:37:59;98616.66;;;34.78;45.97
7180;BME280;3631;42.152;24.756;2022-08-14T05:40:26;98620.13;;;35.83;43.07
7180;BME280;3631;42.152;24.756;2022-08-14T05:42:53;98625.44;;;35.89;42.00
7180;BME280;3631;42.152;24.756;2022-08-14T05:45:21;98622.22;;;35.44;43.27
7180;BME280;3631;42.152;24.756;2022-08-14T05:47:48;98621.19;;;34.84;45.19
7180;BME280;3631;42.152;24.756;2022-08-14T05:50:16;98617.31;;;33.79;46.65
7180;BME280;3631;42.152;24.756;2022-08-14T05:52:43;98615.63;;;32.21;50.51
7180;BME280;3631;42.152;24.756;2022-08-14T05:55:11;98607.53;;;31.13;54.24
7180;BME280;3631;42.152;24.756;2022-08-14T05:57:49;98605.44;;;29.95;58.09
7180;BME280;3631;42.152;24.756;2022-08-14T06:00:17;98604.63;;;29.29;61.78
7180;BME280;3631;42.152;24.756;2022-08-14T06:02:44;98599.72;;;28.88;64.39
7180;BME280;3631;42.152;24.756;2022-08-14T06:05:11;98600.16;;;28.40;66.56
7180;BME280;3631;42.152;24.756;2022-08-14T06:07:38;98600.00;;;27.88;68.81
7180;BME280;3631;42.152;24.756;2022-08-14T06:10:07;98597.59;;;27.70;70.45
7180;BME280;3631;42.152;24.756;2022-08-14T06:12:36;98602.34;;;27.43;72.10
7180;BME280;3631;42.152;24.756;2022-08-14T06:15:04;98601.00;;;27.08;74.62
7180;BME280;3631;42.152;24.756;2022-08-14T06:17:31;98607.84;;;26.87;75.04
7180;BME280;3631;42.152;24.756;2022-08-14T06:20:08;98608.53;;;26.72;75.58
7180;BME280;3631;42.152;24.756;2022-08-14T06:22:38;98605.88;;;26.32;77.04
7180;BME280;3631;42.152;24.756;2022-08-14T06:25:07;98602.38;;;26.23;77.98
7180;BME280;3631;42.152;24.756;2022-08-14T06:27:37;98595.50;;;25.96;77.95
7180;BME280;3631;42.152;24.756;2022-08-14T06:30:06;98605.47;;;25.86;78.55
7180;BME280;3631;42.152;24.756;2022-08-14T06:32:34;98610.25;;;25.66;80.14
7180;BME280;3631;42.152;24.756;2022-08-14T06:35:02;98612.94;;;25.41;82.46
7180;BME280;3631;42.152;24.756;2022-08-14T06:37:38;98614.19;;;25.20;84.11
7180;BME280;3631;42.152;24.756;2022-08-14T06:40:06;98603.84;;;25.09;85.52
7180;BME280;3631;42.152;24.756;2022-08-14T06:42:34;98607.47;;;25.08;86.60
7180;BME280;3631;42.152;24.756;2022-08-14T06:45:03;98605.69;;;24.91;87.91
7180;BME280;3631;42.152;24.756;2022-08-14T06:47:32;98607.38;;;24.92;88.01
7180;BME280;3631;42.152;24.756;2022-08-14T06:50:00;98611.47;;;24.86;88.23
7180;BME280;3631;42.152;24.756;2022-08-14T06:52:27;98606.22;;;24.94;87.48
7180;BME280;3631;42.152;24.756;2022-08-14T06:54:54;98606.03;;;25.14;85.66
7180;BME280;3631;42.152;24.756;2022-08-14T06:57:21;98610.75;;;25.28;84.53
7180;BME280;3631;42.152;24.756;2022-08-14T06:59:48;98605.47;;;25.36;84.37
7180;BME280;3631;42.152;24.756;2022-08-14T07:02:16;98610.50;;;25.55;82.75
7180;BME280;3631;42.152;24.756;2022-08-14T07:05:00;98613.16;;;25.55;82.43
7180;BME280;3631;42.152;24.756;2022-08-14T07:07:45;98599.56;;;25.58;82.00
7180;BME280;3631;42.152;24.756;2022-08-14T07:10:12;98616.75;;;25.72;81.44
7180;BME280;3631;42.152;24.756;2022-08-14T07:12:39;98615.75;;;25.73;81.35
7180;BME280;3631;42.152;24.756;2022-08-14T07:15:07;98614.28;;;25.87;80.23
7180;BME280;3631;42.152;24.756;2022-08-14T07:17:43;98614.00;;;26.06;79.91
7180;BME280;3631;42.152;24.756;2022-08-14T07:20:10;98617.50;;;26.07;78.88
7180;BME280;3631;42.152;24.756;2022-08-14T07:22:37;98599.50;;;25.92;79.46
7180;BME280;3631;42.152;24.756;2022-08-14T07:25:05;98622.78;;;25.98;79.20
7180;BME280;3631;42.152;24.756;2022-08-14T07:27:32;98617.44;;;25.82;80.53
7180;BME280;3631;42.152;24.756;2022-08-14T07:30:01;98613.31;;;25.54;80.91
7180;BME280;3631;42.152;24.756;2022-08-14T07:32:28;98620.59;;;25.44;82.10
7180;BME280;3631;42.152;24.756;2022-08-14T07:34:57;98615.22;;;25.27;83.85
7180;BME280;3631;42.152;24.756;2022-08-14T07:37:24;98620.84;;;25.24;83.88
7180;BME280;3631;42.152;24.756;2022-08-14T07:39:51;98620.88;;;24.99;84.59
7180;BME280;3631;42.152;24.756;2022-08-14T07:42:18;98620.56;;;24.84;84.86
7180;BME280;3631;42.152;24.756;2022-08-14T07:44:45;98622.88;;;24.79;85.24
7180;BME280;3631;42.152;24.756;2022-08-14T07:47:12;98624.53;;;24.80;86.63
7180;BME280;3631;42.152;24.756;2022-08-14T07:49:40;98622.91;;;24.61;92.90
7180;BME280;3631;42.152;24.756;2022-08-14T07:52:08;98625.09;;;24.66;93.73
7180;BME280;3631;42.152;24.756;2022-08-14T07:54:36;98632.84;;;24.59;95.04
7180;BME280;3631;42.152;24.756;2022-08-14T07:57:03;98619.16;;;24.46;97.58
7180;BME280;3631;42.152;24.756;2022-08-14T07:59:31;98631.44;;;24.29;99.55
7180;BME280;3631;42.152;24.756;2022-08-14T08:01:58;98623.75;;;24.08;100.00
7180;BME280;3631;42.152;24.756;2022-08-14T08:04:26;98619.22;;;24.01;100.00
7180;BME280;3631;42.152;24.756;2022-08-14T08:06:55;98617.75;;;23.88;100.00
7180;BME280;3631;42.152;24.756;2022-08-14T08:09:25;98623.28;;;23.77;100.00
7180;BME280;3631;42.152;24.756;2022-08-14T08:11:53;98614.63;;;23.75;100.00
7180;BME280;3631;42.152;24.756;2022-08-14T08:14:21;98620.91;;;23.74;100.00
7180;BME280;3631;42.152;24.756;2022-08-14T08:16:48;98613.25;;;23.71;100.00
7180;BME280;3631;42.152;24.756;2022-08-14T08:19:15;98624.25;;;23.76;100.00
7180;BME280;3631;42.152;24.756;2022-08-14T08:21:43;98619.72;;;23.69;100.00
7180;BME280;3631;42.152;24.756;2022-08-14T08:24:11;98627.03;;;23.57;100.00
7180;BME280;3631;42.152;24.756;2022-08-14T08:26:39;98626.72;;;23.60;100.00
7180;BME280;3631;42.152;24.756;2022-08-14T08:29:06;98627.53;;;23.61;100.00
7180;BME280;3631;42.152;24.756;2022-08-14T08:31:45;98619.72;;;23.69;100.00
7180;BME280;3631;42.152;24.756;2022-08-14T08:34:14;98622.19;;;23.70;100.00
7180;BME280;3631;42.152;24.756;2022-08-14T08:36:41;98620.56;;;23.60;100.00
7180;BME280;3631;42.152;24.756;2022-08-14T08:39:09;98609.31;;;23.48;100.00
7180;BME280;3631;42.152;24.756;2022-08-14T08:41:42;98623.56;;;23.74;100.00
7180;BME280;3631;42.152;24.756;2022-08-14T08:44:10;98627.59;;;23.96;100.00
7180;BME280;3631;42.152;24.756;2022-08-14T08:46:37;98630.72;;;24.09;100.00
7180;BME280;3631;42.152;24.756;2022-08-14T08:49:05;98625.34;;;24.01;100.00
7180;BME280;3631;42.152;24.756;2022-08-14T08:51:33;98635.94;;;24.01;100.00
7180;BME280;3631;42.152;24.756;2022-08-14T08:54:04;98632.00;;;23.87;100.00
7180;BME280;3631;42.152;24.756;2022-08-14T08:56:33;98633.13;;;23.85;100.00
7180;BME280;3631;42.152;24.756;2022-08-14T08:59:02;98628.03;;;23.74;100.00
7180;BME280;3631;42.152;24.756;2022-08-14T09:01:29;98634.25;;;23.82;100.00
7180;BME280;3631;42.152;24.756;2022-08-14T09:04:03;98624.16;;;23.68;100.00
7180;BME280;3631;42.152;24.756;2022-08-14T09:06:30;98613.63;;;23.59;100.00
7180;BME280;3631;42.152;24.756;2022-08-14T09:08:58;98626.72;;;23.60;100.00
7180;BME280;3631;42.152;24.756;2022-08-14T09:11:25;98618.94;;;23.49;100.00
7180;BME280;3631;42.152;24.756;2022-08-14T09:13:52;98618.94;;;23.59;100.00
7180;BME280;3631;42.152;24.756;2022-08-14T09:16:22;98628.16;;;23.72;100.00
7180;BME280;3631;42.152;24.756;2022-08-14T09:18:50;98620.34;;;23.80;100.00
7180;BME280;3631;42.152;24.756;2022-08-14T09:21:18;98619.34;;;23.99;100.00
7180;BME280;3631;42.152;24.756;2022-08-14T09:23:45;98620.13;;;24.27;100.00
7180;BME280;3631;42.152;24.756;2022-08-14T09:26:12;98622.63;;;24.46;100.00
7180;BME280;3631;42.152;24.756;2022-08-14T09:28:39;98627.63;;;24.49;100.00
7180;BME280;3631;42.152;24.756;2022-08-14T09:31:08;98624.22;;;24.39;100.00
7180;BME280;3631;42.152;24.756;2022-08-14T09:33:54;98615.41;;;24.21;100.00
7180;BME280;3631;42.152;24.756;2022-08-14T09:36:36;98611.41;;;23.99;100.00
7180;BME280;3631;42.152;24.756;2022-08-14T09:39:12;98623.53;;;24.02;100.00
7180;BME280;3631;42.152;24.756;2022-08-14T09:41:52;98607.22;;;23.97;100.00
7180;BME280;3631;42.152;24.756;2022-08-14T09:44:36;98614.56;;;23.85;100.00
7180;BME280;3631;42.152;24.756;2022-08-14T09:47:07;98619.75;;;23.59;100.00
7180;BME280;3631;42.152;24.756;2022-08-14T09:49:38;98604.13;;;23.29;100.00
7180;BME280;3631;42.152;24.756;2022-08-14T09:52:08;98597.66;;;23.04;100.00
7180;BME280;3631;42.152;24.756;2022-08-14T09:54:38;98600.19;;;23.05;100.00
7180;BME280;3631;42.152;24.756;2022-08-14T09:57:06;98589.06;;;22.92;100.00
7180;BME280;3631;42.152;24.756;2022-08-14T09:59:41;98605.66;;;22.94;100.00
7180;BME280;3631;42.152;24.756;2022-08-14T10:02:22;98615.84;;;22.89;100.00
7180;BME280;3631;42.152;24.756;2022-08-14T10:05:05;98617.66;;;22.69;100.00
7180;BME280;3631;42.152;24.756;2022-08-14T10:07:35;98617.97;;;22.57;100.00
7180;BME280;3631;42.152;24.756;2022-08-14T10:10:03;98615.19;;;22.49;100.00
7180;BME280;3631;42.152;24.756;2022-08-14T10:12:45;98598.06;;;22.53;100.00
7180;BME280;3631;42.152;24.756;2022-08-14T10:15:17;98597.38;;;22.51;100.00
7180;BME280;3631;42.152;24.756;2022-08-14T10:17:45;98580.81;;;22.49;100.00
7180;BME280;3631;42.152;24.756;2022-08-14T10:20:15;98569.69;;;22.45;100.00
7180;BME280;3631;42.152;24.756;2022-08-14T10:22:46;98576.22;;;22.51;100.00
7180;BME280;3631;42.152;24.756;2022-08-14T10:25:15;98569.53;;;22.46;100.00
7180;BME280;3631;42.152;24.756;2022-08-14T10:27:44;98566.06;;;22.46;100.00
7180;BME280;3631;42.152;24.756;2022-08-14T10:30:16;98558.84;;;22.38;100.00
7180;BME280;3631;42.152;24.756;2022-08-14T10:32:45;98562.59;;;22.45;100.00
7180;BME280;3631;42.152;24.756;2022-08-14T10:35:15;98554.09;;;22.42;100.00
7180;BME280;3631;42.152;24.756;2022-08-14T10:37:45;98559.66;;;22.49;100.00
7180;BME280;3631;42.152;24.756;2022-08-14T10:40:14;98561.03;;;22.53;100.00
7180;BME280;3631;42.152;24.756;2022-08-14T10:42:41;98555.03;;;22.60;100.00
7180;BME280;3631;42.152;24.756;2022-08-14T10:45:18;98557.13;;;22.66;100.00
7180;BME280;3631;42.152;24.756;2022-08-14T10:47:46;98562.66;;;22.83;100.00
7180;BME280;3631;42.152;24.756;2022-08-14T10:50:15;98558.34;;;22.81;100.00
7180;BME280;3631;42.152;24.756;2022-08-14T10:52:43;98555.03;;;22.79;100.00
7180;BME280;3631;42.152;24.756;2022-08-14T10:55:12;98542.19;;;22.75;100.00
7180;BME280;3631;42.152;24.756;2022-08-14T10:57:48;98549.56;;;22.81;100.00
7180;BME280;3631;42.152;24.756;2022-08-14T11:00:17;98536.34;;;22.81;100.00
7180;BME280;3631;42.152;24.756;2022-08-14T11:02:56;98538.00;;;22.82;100.00
7180;BME280;3631;42.152;24.756;2022-08-14T11:05:25;98537.31;;;22.80;100.00
7180;BME280;3631;42.152;24.756;2022-08-14T11:07:57;98537.31;;;22.80;100.00
7180;BME280;3631;42.152;24.756;2022-08-14T11:10:38;98528.84;;;22.67;100.00
7180;BME280;3631;42.152;24.756;2022-08-14T11:13:06;98546.78;;;22.83;100.00
7180;BME280;3631;42.152;24.756;2022-08-14T11:15:33;98535.03;;;22.95;100.00
7180;BME280;3631;42.152;24.756;2022-08-14T11:18:01;98535.31;;;23.01;100.00
7180;BME280;3631;42.152;24.756;2022-08-14T11:20:30;98535.88;;;23.23;100.00
7180;BME280;3631;42.152;24.756;2022-08-14T11:22:59;98550.28;;;23.38;100.00
7180;BME280;3631;42.152;24.756;2022-08-14T11:25:28;98556.81;;;23.43;100.00
7180;BME280;3631;42.152;24.756;2022-08-14T11:27:58;98568.28;;;23.34;100.00
7180;BME280;3631;42.152;24.756;2022-08-14T11:30:27;98559.41;;;23.26;100.00
7180;BME280;3631;42.152;24.756;2022-08-14T11:32:56;98559.09;;;23.29;100.00
7180;BME280;3631;42.152;24.756;2022-08-14T11:35:25;98561.47;;;23.32;100.00
7180;BME280;3631;42.152;24.756;2022-08-14T11:37:55;98566.41;;;23.44;100.00
7180;BME280;3631;42.152;24.756;2022-08-14T11:40:24;98558.75;;;23.41;100.00
7180;BME280;3631;42.152;24.756;2022-08-14T11:42:53;98570.03;;;23.43;100.00
7180;BME280;3631;42.152;24.756;2022-08-14T11:45:21;98567.53;;;23.42;100.00
7180;BME280;3631;42.152;24.756;2022-08-14T11:47:50;98571.00;;;23.52;100.00
7180;BME280;3631;42.152;24.756;2022-08-14T11:50:20;98571.25;;;23.59;100.00
7180;BME280;3631;42.152;24.756;2022-08-14T11:52:48;98571.06;;;23.60;100.00
7180;BME280;3631;42.152;24.756;2022-08-14T11:55:19;98566.75;;;23.59;100.00
7180;BME280;3631;42.152;24.756;2022-08-14T11:57:46;98567.09;;;23.46;100.00
7180;BME280;3631;42.152;24.756;2022-08-14T12:00:24;98565.03;;;23.40;100.00
7180;BME280;3631;42.152;24.756;2022-08-14T12:02:53;98560.63;;;23.31;100.00
7180;BME280;3631;42.152;24.756;2022-08-14T12:05:31;98564.25;;;23.30;100.00
7180;BME280;3631;42.152;24.756;2022-08-14T12:07:59;98572.25;;;23.21;100.00
7180;BME280;3631;42.152;24.756;2022-08-14T12:10:28;98571.97;;;23.24;100.00
7180;BME280;3631;42.152;24.756;2022-08-14T12:12:56;98577.16;;;23.15;100.00
7180;BME280;3631;42.152;24.756;2022-08-14T12:15:31;98580.59;;;22.89;100.00
7180;BME280;3631;42.152;24.756;2022-08-14T12:17:58;98574.34;;;22.80;100.00
7180;BME280;3631;42.152;24.756;2022-08-14T12:20:30;98572.69;;;22.69;100.00
7180;BME280;3631;42.152;24.756;2022-08-14T12:22:59;98578.84;;;22.60;100.00
7180;BME280;3631;42.152;24.756;2022-08-14T12:25:28;98576.63;;;22.56;100.00
7180;BME280;3631;42.152;24.756;2022-08-14T12:27:57;98569.38;;;22.48;100.00
7180;BME280;3631;42.152;24.756;2022-08-14T12:30:27;98566.06;;;22.36;100.00
7180;BME280;3631;42.152;24.756;2022-08-14T12:32:55;98566.09;;;22.27;100.00
7180;BME280;3631;42.152;24.756;2022-08-14T12:35:22;98569.16;;;22.13;100.00
7180;BME280;3631;42.152;24.756;2022-08-14T12:37:50;98569.16;;;22.13;100.00
7180;BME280;3631;42.152;24.756;2022-08-14T12:40:19;98573.06;;;22.08;100.00
7180;BME280;3631;42.152;24.756;2022-08-14T12:42:50;98583.50;;;22.00;100.00
7180;BME280;3631;42.152;24.756;2022-08-14T12:45:29;98599.91;;;22.04;100.00
7180;BME280;3631;42.152;24.756;2022-08-14T12:48:02;98608.06;;;21.91;100.00
7180;BME280;3631;42.152;24.756;2022-08-14T12:50:37;98616.13;;;21.90;100.00
7180;BME280;3631;42.152;24.756;2022-08-14T12:53:05;98613.06;;;21.85;100.00
7180;BME280;3631;42.152;24.756;2022-08-14T12:55:32;98603.72;;;21.81;100.00
7180;BME280;3631;42.152;24.756;2022-08-14T12:58:03;98591.09;;;21.74;100.00
7180;BME280;3631;42.152;24.756;2022-08-14T13:00:32;98567.97;;;21.57;100.00
7180;BME280;3631;42.152;24.756;2022-08-14T13:03:00;98568.09;;;21.56;100.00
7180;BME280;3631;42.152;24.756;2022-08-14T13:05:31;98543.81;;;21.52;100.00
7180;BME280;3631;42.152;24.756;2022-08-14T13:08:04;98524.88;;;21.47;100.00
7180;BME280;3631;42.152;24.756;2022-08-14T13:10:32;98529.63;;;21.53;100.00
7180;BME280;3631;42.152;24.756;2022-08-14T13:13:01;98534.78;;;21.55;100.00
7180;BME280;3631;42.152;24.756;2022-08-14T13:15:28;98548.50;;;21.49;100.00